sensor_id;sensor_type;location;lat;lon;timestamp;P1;durP1;ratioP1;P2;durP2;ratioP2
23282;SDS011;11810;51.178;3.878;2023-05-07T00:01:59;16.65;;;11.07;;
23282;SDS011;11810;51.178;3.878;2023-05-07T00:04:25;14.98;;;10.35;;
23282;SDS011;11810;51.178;3.878;2023-05-07T00:06:51;15.88;;;9.95;;
23282;SDS011;11810;51.178;3.878;2023-05-07T00:09:17;18.92;;;10.43;;
23282;SDS011;11810;51.178;3.878;2023-05-07T00:11:43;18.02;;;10.60;;
23282;SDS011;11810;51.178;3.878;2023-05-07T00:14:09;19.55;;;10.23;;
23282;SDS011;11810;51.178;3.878;2023-05-07T00:16:35;17.88;;;9.43;;
23282;SDS011;11810;51.178;3.878;2023-05-07T00:19:01;18.30;;;10.45;;
23282;SDS011;11810;51.178;3.878;2023-05-07T00:21:26;17.90;;;9.82;;
23282;SDS011;11810;51.178;3.878;2023-05-07T00:23:53;17.83;;;10.55;;
23282;SDS011;11810;51.178;3.878;2023-05-07T00:26:19;16.20;;;10.85;;
23282;SDS011;11810;51.178;3.878;2023-05-07T00:28:46;17.33;;;10.98;;
23282;SDS011;11810;51.178;3.878;2023-05-07T00:31:11;25.58;;;11.40;;
23282;SDS011;11810;51.178;3.878;2023-05-07T00:33:38;18.80;;;10.65;;
23282;SDS011;11810;51.178;3.878;2023-05-07T00:36:04;16.75;;;11.00;;
23282;SDS011;11810;51.178;3.878;2023-05-07T00:38:30;17.23;;;12.10;;
23282;SDS011;11810;51.178;3.878;2023-05-07T00:40:56;19.50;;;11.40;;
23282;SDS011;11810;51.178;3.878;2023-05-07T00:43:22;18.90;;;12.05;;
23282;SDS011;11810;51.178;3.878;2023-05-07T00:45:48;20.88;;;10.35;;
23282;SDS011;11810;51.178;3.878;2023-05-07T00:48:14;19.00;;;10.68;;
23282;SDS011;11810;51.178;3.878;2023-05-07T00:50:40;21.50;;;11.00;;
23282;SDS011;11810;51.178;3.878;2023-05-07T00:53:07;23.35;;;11.25;;
23282;SDS011;11810;51.178;3.878;2023-05-07T00:55:33;14.95;;;10.77;;
23282;SDS011;11810;51.178;3.878;2023-05-07T00:58:00;19.92;;;11.02;;
23282;SDS011;11810;51.178;3.878;2023-05-07T01:00:26;16.75;;;11.30;;
23282;SDS011;11810;51.178;3.878;2023-05-07T01:02:53;14.30;;;10.02;;
23282;SDS011;11810;51.178;3.878;2023-05-07T01:05:19;16.35;;;10.38;;
23282;SDS011;11810;51.178;3.878;2023-05-07T01:07:47;16.13;;;10.63;;
23282;SDS011;11810;51.178;3.878;2023-05-07T01:10:15;16.73;;;10.43;;
23282;SDS011;11810;51.178;3.878;2023-05-07T01:12:43;17.50;;;10.45;;
23282;SDS011;11810;51.178;3.878;2023-05-07T01:15:10;15.32;;;10.35;;
23282;SDS011;11810;51.178;3.878;2023-05-07T01:17:37;17.20;;;9.98;;
23282;SDS011;11810;51.178;3.878;2023-05-07T01:20:05;18.25;;;10.57;;
23282;SDS011;11810;51.178;3.878;2023-05-07T01:22:35;17.70;;;10.98;;
23282;SDS011;11810;51.178;3.878;2023-05-07T01:25:03;22.10;;;11.35;;
23282;SDS011;11810;51.178;3.878;2023-05-07T01:27:30;17.05;;;10.68;;
23282;SDS011;11810;51.178;3.878;2023-05-07T01:29:58;17.17;;;11.98;;
23282;SDS011;11810;51.178;3.878;2023-05-07T01:32:43;18.67;;;10.68;;
23282;SDS011;11810;51.178;3.878;2023-05-07T01:35:19;16.00;;;10.70;;
23282;SDS011;11810;51.178;3.878;2023-05-07T01:37:48;18.95;;;10.80;;
23282;SDS011;11810;51.178;3.878;2023-05-07T01:40:15;21.38;;;11.48;;
23282;SDS011;11810;51.178;3.878;2023-05-07T01:42:41;20.73;;;12.25;;
23282;SDS011;11810;51.178;3.878;2023-05-07T01:45:08;18.30;;;11.40;;
23282;SDS011;11810;51.178;3.878;2023-05-07T01:47:36;19.33;;;11.05;;
23282;SDS011;11810;51.178;3.878;2023-05-07T01:50:03;16.58;;;11.65;;
23282;SDS011;11810;51.178;3.878;2023-05-07T01:52:31;21.55;;;11.90;;
23282;SDS011;11810;51.178;3.878;2023-05-07T01:54:57;19.48;;;11.32;;
23282;SDS011;11810;51.178;3.878;2023-05-07T01:57:23;19.92;;;12.25;;
23282;SDS011;11810;51.178;3.878;2023-05-07T01:59:49;15.63;;;11.57;;
23282;SDS011;11810;51.178;3.878;2023-05-07T02:02:15;25.02;;;12.57;;
23282;SDS011;11810;51.178;3.878;2023-05-07T02:04:41;19.05;;;12.88;;
23282;SDS011;11810;51.178;3.878;2023-05-07T02:07:07;21.30;;;11.68;;
23282;SDS011;11810;51.178;3.878;2023-05-07T02:09:33;18.88;;;11.75;;
23282;SDS011;11810;51.178;3.878;2023-05-07T02:11:59;19.70;;;12.00;;
23282;SDS011;11810;51.178;3.878;2023-05-07T02:14:25;18.88;;;12.75;;
23282;SDS011;11810;51.178;3.878;2023-05-07T02:16:51;22.05;;;13.93;;
23282;SDS011;11810;51.178;3.878;2023-05-07T02:19:17;19.98;;;14.05;;
23282;SDS011;11810;51.178;3.878;2023-05-07T02:21:46;22.25;;;12.90;;
23282;SDS011;11810;51.178;3.878;2023-05-07T02:24:12;18.67;;;13.32;;
23282;SDS011;11810;51.178;3.878;2023-05-07T02:26:41;21.35;;;13.43;;
23282;SDS011;11810;51.178;3.878;2023-05-07T02:29:07;22.45;;;12.90;;
23282;SDS011;11810;51.178;3.878;2023-05-07T02:31:33;18.55;;;11.98;;
23282;SDS011;11810;51.178;3.878;2023-05-07T02:33:59;21.10;;;12.27;;
23282;SDS011;11810;51.178;3.878;2023-05-07T02:36:26;18.33;;;12.57;;
23282;SDS011;11810;51.178;3.878;2023-05-07T02:38:52;17.17;;;11.63;;
23282;SDS011;11810;51.178;3.878;2023-05-07T02:41:18;22.65;;;13.07;;
23282;SDS011;11810;51.178;3.878;2023-05-07T02:43:44;24.58;;;13.15;;
23282;SDS011;11810;51.178;3.878;2023-05-07T02:46:10;20.40;;;11.88;;
23282;SDS011;11810;51.178;3.878;2023-05-07T02:48:35;20.63;;;12.45;;
23282;SDS011;11810;51.178;3.878;2023-05-07T02:51:02;19.70;;;12.15;;
23282;SDS011;11810;51.178;3.878;2023-05-07T02:53:29;16.33;;;12.50;;
23282;SDS011;11810;51.178;3.878;2023-05-07T02:55:55;19.63;;;11.88;;
23282;SDS011;11810;51.178;3.878;2023-05-07T02:58:22;17.48;;;11.43;;
23282;SDS011;11810;51.178;3.878;2023-05-07T03:00:49;21.45;;;12.32;;
23282;SDS011;11810;51.178;3.878;2023-05-07T03:03:15;16.15;;;11.90;;
23282;SDS011;11810;51.178;3.878;2023-05-07T03:05:41;23.08;;;12.45;;
23282;SDS011;11810;51.178;3.878;2023-05-07T03:08:07;18.73;;;12.23;;
23282;SDS011;11810;51.178;3.878;2023-05-07T03:10:33;19.70;;;12.75;;
23282;SDS011;11810;51.178;3.878;2023-05-07T03:13:00;16.52;;;12.35;;
23282;SDS011;11810;51.178;3.878;2023-05-07T03:15:26;15.60;;;11.70;;
23282;SDS011;11810;51.178;3.878;2023-05-07T03:17:52;19.20;;;11.75;;
23282;SDS011;11810;51.178;3.878;2023-05-07T03:20:18;19.70;;;11.40;;
23282;SDS011;11810;51.178;3.878;2023-05-07T03:22:44;18.48;;;12.82;;
23282;SDS011;11810;51.178;3.878;2023-05-07T03:25:10;21.55;;;12.45;;
23282;SDS011;11810;51.178;3.878;2023-05-07T03:27:36;21.23;;;13.48;;
23282;SDS011;11810;51.178;3.878;2023-05-07T03:30:03;21.67;;;12.70;;
23282;SDS011;11810;51.178;3.878;2023-05-07T03:32:29;18.23;;;12.13;;
23282;SDS011;11810;51.178;3.878;2023-05-07T03:34:55;17.70;;;13.07;;
23282;SDS011;11810;51.178;3.878;2023-05-07T03:37:21;20.70;;;12.57;;
23282;SDS011;11810;51.178;3.878;2023-05-07T03:39:47;22.73;;;12.32;;
23282;SDS011;11810;51.178;3.878;2023-05-07T03:42:13;17.88;;;11.95;;
23282;SDS011;11810;51.178;3.878;2023-05-07T03:44:39;17.92;;;12.75;;
23282;SDS011;11810;51.178;3.878;2023-05-07T03:47:05;23.15;;;12.00;;
23282;SDS011;11810;51.178;3.878;2023-05-07T03:49:31;16.45;;;11.25;;
23282;SDS011;11810;51.178;3.878;2023-05-07T03:51:57;14.55;;;11.32;;
23282;SDS011;11810;51.178;3.878;2023-05-07T03:54:23;18.50;;;11.90;;
23282;SDS011;11810;51.178;3.878;2023-05-07T03:56:49;16.20;;;12.07;;
23282;SDS011;11810;51.178;3.878;2023-05-07T03:59:15;16.83;;;11.50;;
23282;SDS011;11810;51.178;3.878;2023-05-07T04:01:41;18.48;;;12.05;;
23282;SDS011;11810;51.178;3.878;2023-05-07T04:04:07;19.65;;;12.15;;
23282;SDS011;11810;51.178;3.878;2023-05-07T04:06:33;17.80;;;10.77;;
23282;SDS011;11810;51.178;3.878;2023-05-07T04:08:59;18.15;;;12.32;;
23282;SDS011;11810;51.178;3.878;2023-05-07T04:11:25;19.15;;;12.45;;
23282;SDS011;11810;51.178;3.878;2023-05-07T04:13:51;15.98;;;11.93;;
23282;SDS011;11810;51.178;3.878;2023-05-07T04:16:17;16.48;;;11.57;;
23282;SDS011;11810;51.178;3.878;2023-05-07T04:18:42;17.20;;;11.93;;
23282;SDS011;11810;51.178;3.878;2023-05-07T04:21:15;19.67;;;11.45;;
23282;SDS011;11810;51.178;3.878;2023-05-07T04:23:46;20.17;;;11.05;;
23282;SDS011;11810;51.178;3.878;2023-05-07T04:26:12;19.70;;;12.32;;
23282;SDS011;11810;51.178;3.878;2023-05-07T04:28:38;16.70;;;11.15;;
23282;SDS011;11810;51.178;3.878;2023-05-07T04:31:05;18.02;;;11.80;;
23282;SDS011;11810;51.178;3.878;2023-05-07T04:33:31;18.15;;;12.23;;
23282;SDS011;11810;51.178;3.878;2023-05-07T04:35:58;18.77;;;12.95;;
23282;SDS011;11810;51.178;3.878;2023-05-07T04:38:31;20.48;;;12.80;;
23282;SDS011;11810;51.178;3.878;2023-05-07T04:41:02;16.83;;;12.90;;
23282;SDS011;11810;51.178;3.878;2023-05-07T04:43:28;15.35;;;11.90;;
23282;SDS011;11810;51.178;3.878;2023-05-07T04:45:54;17.52;;;11.90;;
23282;SDS011;11810;51.178;3.878;2023-05-07T04:48:20;23.33;;;12.90;;
23282;SDS011;11810;51.178;3.878;2023-05-07T04:50:49;18.38;;;12.18;;
23282;SDS011;11810;51.178;3.878;2023-05-07T04:53:16;17.63;;;11.77;;
23282;SDS011;11810;51.178;3.878;2023-05-07T04:55:42;14.55;;;12.32;;
23282;SDS011;11810;51.178;3.878;2023-05-07T04:58:10;18.63;;;11.93;;
23282;SDS011;11810;51.178;3.878;2023-05-07T05:00:36;17.85;;;11.75;;
23282;SDS011;11810;51.178;3.878;2023-05-07T05:03:04;17.38;;;12.25;;
23282;SDS011;11810;51.178;3.878;2023-05-07T05:05:30;18.58;;;12.45;;
23282;SDS011;11810;51.178;3.878;2023-05-07T05:07:56;19.15;;;12.88;;
23282;SDS011;11810;51.178;3.878;2023-05-07T05:10:22;20.48;;;12.57;;
23282;SDS011;11810;51.178;3.878;2023-05-07T05:12:48;20.05;;;12.65;;
23282;SDS011;11810;51.178;3.878;2023-05-07T05:15:14;18.02;;;12.57;;
23282;SDS011;11810;51.178;3.878;2023-05-07T05:17:40;23.98;;;13.82;;
23282;SDS011;11810;51.178;3.878;2023-05-07T05:20:06;16.80;;;13.40;;
23282;SDS011;11810;51.178;3.878;2023-05-07T05:22:32;21.40;;;15.23;;
23282;SDS011;11810;51.178;3.878;2023-05-07T05:24:58;26.52;;;14.52;;
23282;SDS011;11810;51.178;3.878;2023-05-07T05:27:24;21.60;;;14.93;;
23282;SDS011;11810;51.178;3.878;2023-05-07T05:29:50;25.75;;;16.05;;
23282;SDS011;11810;51.178;3.878;2023-05-07T05:32:16;24.17;;;15.18;;
23282;SDS011;11810;51.178;3.878;2023-05-07T05:34:42;23.67;;;15.45;;
23282;SDS011;11810;51.178;3.878;2023-05-07T05:37:08;26.90;;;17.17;;
23282;SDS011;11810;51.178;3.878;2023-05-07T05:39:34;25.83;;;16.13;;
23282;SDS011;11810;51.178;3.878;2023-05-07T05:42:00;24.05;;;15.65;;
23282;SDS011;11810;51.178;3.878;2023-05-07T05:44:26;26.83;;;16.75;;
23282;SDS011;11810;51.178;3.878;2023-05-07T05:46:52;26.27;;;16.55;;
23282;SDS011;11810;51.178;3.878;2023-05-07T05:49:20;28.27;;;18.55;;
23282;SDS011;11810;51.178;3.878;2023-05-07T05:51:47;26.52;;;16.85;;
23282;SDS011;11810;51.178;3.878;2023-05-07T05:54:13;25.35;;;18.60;;
23282;SDS011;11810;51.178;3.878;2023-05-07T05:56:39;25.40;;;17.75;;
23282;SDS011;11810;51.178;3.878;2023-05-07T05:59:04;30.38;;;16.92;;
23282;SDS011;11810;51.178;3.878;2023-05-07T06:01:31;26.25;;;16.58;;
23282;SDS011;11810;51.178;3.878;2023-05-07T06:03:57;26.75;;;19.00;;
23282;SDS011;11810;51.178;3.878;2023-05-07T06:06:23;28.85;;;19.77;;
23282;SDS011;11810;51.178;3.878;2023-05-07T06:08:49;37.08;;;17.65;;
23282;SDS011;11810;51.178;3.878;2023-05-07T06:11:15;34.03;;;17.45;;
23282;SDS011;11810;51.178;3.878;2023-05-07T06:13:41;26.80;;;17.50;;
23282;SDS011;11810;51.178;3.878;2023-05-07T06:16:07;24.70;;;17.10;;
23282;SDS011;11810;51.178;3.878;2023-05-07T06:18:33;31.13;;;19.45;;
23282;SDS011;11810;51.178;3.878;2023-05-07T06:21:01;29.60;;;18.30;;
23282;SDS011;11810;51.178;3.878;2023-05-07T06:23:27;25.67;;;17.25;;
23282;SDS011;11810;51.178;3.878;2023-05-07T06:25:53;25.08;;;17.67;;
23282;SDS011;11810;51.178;3.878;2023-05-07T06:28:19;28.30;;;17.52;;
23282;SDS011;11810;51.178;3.878;2023-05-07T06:30:45;25.10;;;16.67;;
23282;SDS011;11810;51.178;3.878;2023-05-07T06:33:11;26.50;;;17.95;;
23282;SDS011;11810;51.178;3.878;2023-05-07T06:35:37;32.13;;;17.73;;
23282;SDS011;11810;51.178;3.878;2023-05-07T06:38:02;27.25;;;16.73;;
23282;SDS011;11810;51.178;3.878;2023-05-07T06:40:28;29.98;;;17.25;;
23282;SDS011;11810;51.178;3.878;2023-05-07T06:42:54;24.58;;;15.95;;
23282;SDS011;11810;51.178;3.878;2023-05-07T06:45:20;21.77;;;15.05;;
23282;SDS011;11810;51.178;3.878;2023-05-07T06:47:46;24.48;;;14.90;;
23282;SDS011;11810;51.178;3.878;2023-05-07T06:50:12;26.15;;;15.18;;
23282;SDS011;11810;51.178;3.878;2023-05-07T06:52:38;21.48;;;13.77;;
23282;SDS011;11810;51.178;3.878;2023-05-07T06:55:04;22.60;;;15.52;;
23282;SDS011;11810;51.178;3.878;2023-05-07T06:57:31;24.08;;;12.93;;
23282;SDS011;11810;51.178;3.878;2023-05-07T06:59:57;20.15;;;12.57;;
23282;SDS011;11810;51.178;3.878;2023-05-07T07:02:23;19.13;;;12.07;;
23282;SDS011;11810;51.178;3.878;2023-05-07T07:04:49;20.30;;;12.30;;
23282;SDS011;11810;51.178;3.878;2023-05-07T07:07:15;19.35;;;11.88;;
23282;SDS011;11810;51.178;3.878;2023-05-07T07:09:41;18.80;;;11.25;;
23282;SDS011;11810;51.178;3.878;2023-05-07T07:12:07;19.48;;;11.45;;
23282;SDS011;11810;51.178;3.878;2023-05-07T07:14:32;19.40;;;11.75;;
23282;SDS011;11810;51.178;3.878;2023-05-07T07:16:58;19.27;;;10.95;;
23282;SDS011;11810;51.178;3.878;2023-05-07T07:19:25;20.58;;;10.98;;
23282;SDS011;11810;51.178;3.878;2023-05-07T07:21:51;16.52;;;11.00;;
23282;SDS011;11810;51.178;3.878;2023-05-07T07:24:17;26.25;;;10.45;;
23282;SDS011;11810;51.178;3.878;2023-05-07T07:26:46;17.42;;;9.57;;
23282;SDS011;11810;51.178;3.878;2023-05-07T07:29:12;18.25;;;9.40;;
23282;SDS011;11810;51.178;3.878;2023-05-07T07:31:38;17.90;;;9.38;;
23282;SDS011;11810;51.178;3.878;2023-05-07T07:34:04;15.35;;;8.88;;
23282;SDS011;11810;51.178;3.878;2023-05-07T07:36:30;15.85;;;8.02;;
23282;SDS011;11810;51.178;3.878;2023-05-07T07:38:56;14.25;;;7.95;;
23282;SDS011;11810;51.178;3.878;2023-05-07T07:41:22;13.32;;;7.45;;
23282;SDS011;11810;51.178;3.878;2023-05-07T07:43:48;12.20;;;7.75;;
23282;SDS011;11810;51.178;3.878;2023-05-07T07:46:14;11.57;;;6.75;;
23282;SDS011;11810;51.178;3.878;2023-05-07T07:48:40;14.75;;;7.57;;
23282;SDS011;11810;51.178;3.878;2023-05-07T07:51:06;13.77;;;7.70;;
23282;SDS011;11810;51.178;3.878;2023-05-07T07:53:32;20.00;;;8.00;;
23282;SDS011;11810;51.178;3.878;2023-05-07T07:55:58;12.15;;;7.13;;
23282;SDS011;11810;51.178;3.878;2023-05-07T07:58:24;18.13;;;6.55;;
23282;SDS011;11810;51.178;3.878;2023-05-07T08:00:50;17.00;;;7.40;;
23282;SDS011;11810;51.178;3.878;2023-05-07T08:03:16;12.25;;;7.72;;
23282;SDS011;11810;51.178;3.878;2023-05-07T08:05:42;14.73;;;7.60;;
23282;SDS011;11810;51.178;3.878;2023-05-07T08:08:08;19.02;;;7.93;;
23282;SDS011;11810;51.178;3.878;2023-05-07T08:10:34;13.18;;;7.32;;
23282;SDS011;11810;51.178;3.878;2023-05-07T08:13:03;12.52;;;7.38;;
23282;SDS011;11810;51.178;3.878;2023-05-07T08:15:30;11.80;;;6.63;;
23282;SDS011;11810;51.178;3.878;2023-05-07T08:17:56;11.68;;;6.75;;
23282;SDS011;11810;51.178;3.878;2023-05-07T08:20:23;10.88;;;6.43;;
23282;SDS011;11810;51.178;3.878;2023-05-07T08:22:49;11.10;;;6.00;;
23282;SDS011;11810;51.178;3.878;2023-05-07T08:25:15;13.23;;;6.63;;
23282;SDS011;11810;51.178;3.878;2023-05-07T08:27:40;14.60;;;6.30;;
23282;SDS011;11810;51.178;3.878;2023-05-07T08:30:06;13.77;;;6.20;;
23282;SDS011;11810;51.178;3.878;2023-05-07T08:32:33;10.35;;;6.40;;
23282;SDS011;11810;51.178;3.878;2023-05-07T08:34:59;14.82;;;6.43;;
23282;SDS011;11810;51.178;3.878;2023-05-07T08:37:25;11.48;;;6.18;;
23282;SDS011;11810;51.178;3.878;2023-05-07T08:39:51;10.45;;;5.70;;
23282;SDS011;11810;51.178;3.878;2023-05-07T08:42:17;12.45;;;6.43;;
23282;SDS011;11810;51.178;3.878;2023-05-07T08:44:46;11.75;;;6.22;;
23282;SDS011;11810;51.178;3.878;2023-05-07T08:47:12;10.15;;;5.75;;
23282;SDS011;11810;51.178;3.878;2023-05-07T08:49:38;9.90;;;5.55;;
23282;SDS011;11810;51.178;3.878;2023-05-07T08:52:04;12.43;;;6.30;;
23282;SDS011;11810;51.178;3.878;2023-05-07T08:54:30;11.63;;;5.85;;
23282;SDS011;11810;51.178;3.878;2023-05-07T08:56:57;11.57;;;5.65;;
23282;SDS011;11810;51.178;3.878;2023-05-07T08:59:23;13.02;;;6.50;;
23282;SDS011;11810;51.178;3.878;2023-05-07T09:01:49;9.85;;;5.95;;
23282;SDS011;11810;51.178;3.878;2023-05-07T09:04:15;11.82;;;6.43;;
23282;SDS011;11810;51.178;3.878;2023-05-07T09:06:41;11.07;;;6.03;;
23282;SDS011;11810;51.178;3.878;2023-05-07T09:09:07;19.90;;;6.90;;
23282;SDS011;11810;51.178;3.878;2023-05-07T09:11:33;11.15;;;5.60;;
23282;SDS011;11810;51.178;3.878;2023-05-07T09:13:59;15.00;;;6.20;;
23282;SDS011;11810;51.178;3.878;2023-05-07T09:16:27;10.32;;;5.90;;
23282;SDS011;11810;51.178;3.878;2023-05-07T09:18:56;14.35;;;6.15;;
23282;SDS011;11810;51.178;3.878;2023-05-07T09:21:23;10.38;;;5.43;;
23282;SDS011;11810;51.178;3.878;2023-05-07T09:23:53;9.02;;;5.03;;
23282;SDS011;11810;51.178;3.878;2023-05-07T09:26:21;11.55;;;5.10;;
23282;SDS011;11810;51.178;3.878;2023-05-07T09:28:48;9.30;;;4.88;;
23282;SDS011;11810;51.178;3.878;2023-05-07T09:31:14;8.70;;;5.40;;
23282;SDS011;11810;51.178;3.878;2023-05-07T09:33:40;7.80;;;4.15;;
23282;SDS011;11810;51.178;3.878;2023-05-07T09:36:06;8.73;;;4.75;;
23282;SDS011;11810;51.178;3.878;2023-05-07T09:38:34;8.23;;;4.35;;
23282;SDS011;11810;51.178;3.878;2023-05-07T09:41:11;9.23;;;4.13;;
23282;SDS011;11810;51.178;3.878;2023-05-07T09:43:38;10.00;;;4.55;;
23282;SDS011;11810;51.178;3.878;2023-05-07T09:46:06;8.85;;;4.30;;
23282;SDS011;11810;51.178;3.878;2023-05-07T09:48:40;12.40;;;4.68;;
23282;SDS011;11810;51.178;3.878;2023-05-07T09:51:29;10.82;;;5.10;;
23282;SDS011;11810;51.178;3.878;2023-05-07T09:54:16;10.77;;;5.47;;
23282;SDS011;11810;51.178;3.878;2023-05-07T09:56:43;11.50;;;5.82;;
23282;SDS011;11810;51.178;3.878;2023-05-07T09:59:13;11.38;;;7.38;;
23282;SDS011;11810;51.178;3.878;2023-05-07T10:01:43;8.38;;;5.07;;
23282;SDS011;11810;51.178;3.878;2023-05-07T10:04:10;38.22;;;31.65;;
23282;SDS011;11810;51.178;3.878;2023-05-07T10:06:37;10.88;;;6.38;;
23282;SDS011;11810;51.178;3.878;2023-05-07T10:09:03;13.65;;;9.60;;
23282;SDS011;11810;51.178;3.878;2023-05-07T10:11:34;9.85;;;5.63;;
23282;SDS011;11810;51.178;3.878;2023-05-07T10:14:04;12.30;;;7.10;;
23282;SDS011;11810;51.178;3.878;2023-05-07T10:16:33;12.10;;;8.18;;
23282;SDS011;11810;51.178;3.878;2023-05-07T10:19:03;13.93;;;8.27;;
23282;SDS011;11810;51.178;3.878;2023-05-07T10:21:30;7.47;;;5.80;;
23282;SDS011;11810;51.178;3.878;2023-05-07T10:24:03;7.10;;;4.55;;
23282;SDS011;11810;51.178;3.878;2023-05-07T10:26:39;6.60;;;3.60;;
23282;SDS011;11810;51.178;3.878;2023-05-07T10:29:11;7.60;;;3.58;;
23282;SDS011;11810;51.178;3.878;2023-05-07T10:34:39;8.85;;;4.72;;
23282;SDS011;11810;51.178;3.878;2023-05-07T10:37:08;10.52;;;4.60;;
23282;SDS011;11810;51.178;3.878;2023-05-07T10:39:35;11.52;;;4.22;;
23282;SDS011;11810;51.178;3.878;2023-05-07T10:42:11;8.65;;;4.03;;
23282;SDS011;11810;51.178;3.878;2023-05-07T10:44:39;7.07;;;3.55;;
23282;SDS011;11810;51.178;3.878;2023-05-07T10:52:17;7.95;;;2.97;;
23282;SDS011;11810;51.178;3.878;2023-05-07T10:54:45;7.82;;;3.25;;
23282;SDS011;11810;51.178;3.878;2023-05-07T11:00:02;5.53;;;2.22;;
23282;SDS011;11810;51.178;3.878;2023-05-07T11:05:26;7.70;;;2.30;;
23282;SDS011;11810;51.178;3.878;2023-05-07T11:07:54;4.43;;;2.15;;
23282;SDS011;11810;51.178;3.878;2023-05-07T11:10:21;3.28;;;2.35;;
23282;SDS011;11810;51.178;3.878;2023-05-07T11:12:50;4.20;;;2.53;;
23282;SDS011;11810;51.178;3.878;2023-05-07T11:15:36;5.55;;;2.40;;
23282;SDS011;11810;51.178;3.878;2023-05-07T11:18:04;5.75;;;2.63;;
23282;SDS011;11810;51.178;3.878;2023-05-07T11:20:46;9.65;;;2.45;;
23282;SDS011;11810;51.178;3.878;2023-05-07T11:28:39;5.38;;;2.30;;
23282;SDS011;11810;51.178;3.878;2023-05-07T11:31:06;5.47;;;2.25;;
23282;SDS011;11810;51.178;3.878;2023-05-07T11:33:33;5.35;;;2.13;;
23282;SDS011;11810;51.178;3.878;2023-05-07T11:36:01;5.00;;;2.20;;
23282;SDS011;11810;51.178;3.878;2023-05-07T11:38:35;5.03;;;2.42;;
23282;SDS011;11810;51.178;3.878;2023-05-07T11:41:02;6.85;;;2.42;;
23282;SDS011;11810;51.178;3.878;2023-05-07T11:43:30;4.50;;;2.45;;
23282;SDS011;11810;51.178;3.878;2023-05-07T11:46:10;4.85;;;2.60;;
23282;SDS011;11810;51.178;3.878;2023-05-07T11:48:39;4.28;;;2.58;;
23282;SDS011;11810;51.178;3.878;2023-05-07T11:51:07;8.40;;;3.03;;
23282;SDS011;11810;51.178;3.878;2023-05-07T11:53:39;9.20;;;2.70;;
23282;SDS011;11810;51.178;3.878;2023-05-07T11:56:16;5.88;;;2.53;;
23282;SDS011;11810;51.178;3.878;2023-05-07T11:58:43;6.05;;;2.88;;
23282;SDS011;11810;51.178;3.878;2023-05-07T12:01:10;4.35;;;1.92;;
23282;SDS011;11810;51.178;3.878;2023-05-07T12:03:37;8.48;;;2.92;;
23282;SDS011;11810;51.178;3.878;2023-05-07T12:06:10;8.68;;;2.85;;
23282;SDS011;11810;51.178;3.878;2023-05-07T12:08:38;6.75;;;2.70;;
23282;SDS011;11810;51.178;3.878;2023-05-07T12:11:15;7.65;;;5.10;;
23282;SDS011;11810;51.178;3.878;2023-05-07T12:13:47;4.07;;;2.85;;
23282;SDS011;11810;51.178;3.878;2023-05-07T12:16:13;5.63;;;2.45;;
23282;SDS011;11810;51.178;3.878;2023-05-07T12:18:39;5.97;;;2.45;;
23282;SDS011;11810;51.178;3.878;2023-05-07T12:21:06;5.75;;;2.67;;
23282;SDS011;11810;51.178;3.878;2023-05-07T12:23:33;5.82;;;2.70;;
23282;SDS011;11810;51.178;3.878;2023-05-07T12:26:01;6.35;;;2.55;;
23282;SDS011;11810;51.178;3.878;2023-05-07T12:28:27;6.53;;;2.55;;
23282;SDS011;11810;51.178;3.878;2023-05-07T12:30:53;5.35;;;2.65;;
23282;SDS011;11810;51.178;3.878;2023-05-07T12:33:23;5.75;;;2.83;;
23282;SDS011;11810;51.178;3.878;2023-05-07T12:35:50;4.70;;;2.35;;
23282;SDS011;11810;51.178;3.878;2023-05-07T12:38:18;6.05;;;2.22;;
23282;SDS011;11810;51.178;3.878;2023-05-07T12:40:45;5.40;;;2.53;;
23282;SDS011;11810;51.178;3.878;2023-05-07T12:43:24;3.78;;;2.10;;
23282;SDS011;11810;51.178;3.878;2023-05-07T12:45:51;4.55;;;1.98;;
23282;SDS011;11810;51.178;3.878;2023-05-07T12:48:19;5.47;;;2.50;;
23282;SDS011;11810;51.178;3.878;2023-05-07T12:50:49;4.88;;;2.30;;
23282;SDS011;11810;51.178;3.878;2023-05-07T12:53:16;6.22;;;2.58;;
23282;SDS011;11810;51.178;3.878;2023-05-07T12:55:45;4.95;;;2.28;;
23282;SDS011;11810;51.178;3.878;2023-05-07T13:00:51;5.32;;;2.50;;
23282;SDS011;11810;51.178;3.878;2023-05-07T13:03:21;4.65;;;2.10;;
23282;SDS011;11810;51.178;3.878;2023-05-07T13:05:48;4.78;;;2.33;;
23282;SDS011;11810;51.178;3.878;2023-05-07T13:08:34;4.43;;;2.35;;
23282;SDS011;11810;51.178;3.878;2023-05-07T13:11:03;3.08;;;1.77;;
23282;SDS011;11810;51.178;3.878;2023-05-07T13:13:32;5.25;;;2.42;;
23282;SDS011;11810;51.178;3.878;2023-05-07T13:16:00;4.65;;;2.53;;
23282;SDS011;11810;51.178;3.878;2023-05-07T13:18:27;6.15;;;2.55;;
23282;SDS011;11810;51.178;3.878;2023-05-07T13:20:55;3.85;;;2.47;;
23282;SDS011;11810;51.178;3.878;2023-05-07T13:23:21;4.85;;;2.20;;
23282;SDS011;11810;51.178;3.878;2023-05-07T13:25:47;6.53;;;2.63;;
23282;SDS011;11810;51.178;3.878;2023-05-07T13:28:14;5.45;;;3.13;;
23282;SDS011;11810;51.178;3.878;2023-05-07T13:30:40;3.95;;;2.72;;
23282;SDS011;11810;51.178;3.878;2023-05-07T13:33:06;4.70;;;2.88;;
23282;SDS011;11810;51.178;3.878;2023-05-07T13:35:33;4.88;;;2.80;;
23282;SDS011;11810;51.178;3.878;2023-05-07T13:37:59;4.85;;;2.83;;
23282;SDS011;11810;51.178;3.878;2023-05-07T13:40:25;3.92;;;2.83;;
23282;SDS011;11810;51.178;3.878;2023-05-07T13:42:51;7.00;;;3.58;;
23282;SDS011;11810;51.178;3.878;2023-05-07T13:45:18;5.55;;;4.03;;
23282;SDS011;11810;51.178;3.878;2023-05-07T13:47:45;5.10;;;3.65;;
23282;SDS011;11810;51.178;3.878;2023-05-07T13:50:12;4.82;;;3.20;;
23282;SDS011;11810;51.178;3.878;2023-05-07T13:52:41;5.97;;;3.40;;
23282;SDS011;11810;51.178;3.878;2023-05-07T13:55:10;4.82;;;3.70;;
23282;SDS011;11810;51.178;3.878;2023-05-07T13:57:36;6.45;;;3.45;;
23282;SDS011;11810;51.178;3.878;2023-05-07T14:00:03;5.80;;;3.60;;
23282;SDS011;11810;51.178;3.878;2023-05-07T14:02:30;10.48;;;3.47;;
23282;SDS011;11810;51.178;3.878;2023-05-07T14:04:56;3.95;;;2.83;;
23282;SDS011;11810;51.178;3.878;2023-05-07T14:07:22;4.35;;;2.47;;
23282;SDS011;11810;51.178;3.878;2023-05-07T14:09:48;3.00;;;1.80;;
23282;SDS011;11810;51.178;3.878;2023-05-07T14:12:14;3.88;;;1.98;;
23282;SDS011;11810;51.178;3.878;2023-05-07T14:14:40;2.25;;;1.25;;
23282;SDS011;11810;51.178;3.878;2023-05-07T14:17:06;3.40;;;1.80;;
23282;SDS011;11810;51.178;3.878;2023-05-07T14:19:33;2.58;;;1.40;;
23282;SDS011;11810;51.178;3.878;2023-05-07T14:21:59;3.78;;;1.60;;
23282;SDS011;11810;51.178;3.878;2023-05-07T14:24:25;2.10;;;1.40;;
23282;SDS011;11810;51.178;3.878;2023-05-07T14:26:51;2.38;;;1.50;;
23282;SDS011;11810;51.178;3.878;2023-05-07T14:29:17;2.35;;;1.35;;
23282;SDS011;11810;51.178;3.878;2023-05-07T14:31:44;2.67;;;1.60;;
23282;SDS011;11810;51.178;3.878;2023-05-07T14:34:11;2.92;;;1.48;;
23282;SDS011;11810;51.178;3.878;2023-05-07T14:36:37;5.90;;;1.50;;
23282;SDS011;11810;51.178;3.878;2023-05-07T14:39:05;2.60;;;1.40;;
23282;SDS011;11810;51.178;3.878;2023-05-07T14:41:31;6.40;;;1.55;;
23282;SDS011;11810;51.178;3.878;2023-05-07T14:43:58;5.43;;;1.80;;
23282;SDS011;11810;51.178;3.878;2023-05-07T14:46:24;3.17;;;1.63;;
23282;SDS011;11810;51.178;3.878;2023-05-07T14:48:50;1.77;;;1.40;;
23282;SDS011;11810;51.178;3.878;2023-05-07T14:51:16;3.40;;;1.63;;
23282;SDS011;11810;51.178;3.878;2023-05-07T14:53:42;2.65;;;1.52;;